This is the latest recevied weather packets stored in our database for station/object IW1RID-3. If no packets are shown the sender has not sent any weather packets the latest 10 day(s).
| Time | Temp. | Humidity | Pressure | Rain* | Wind** | Luminosity | Snow |
|---|---|---|---|---|---|---|---|
| 1777520376 | 14.44° C | 66% | 1075.1 hPa | - | - | - | - |
| 1777519172 | 14.44° C | 66% | 1074.9 hPa | - | - | - | - |
| 1777517967 | 15° C | 66% | 1075 hPa | - | - | - | - |
| 1777516762 | 15° C | 64% | 1075 hPa | - | - | - | - |
| 1777515557 | 15° C | 65% | 1074.7 hPa | - | - | - | - |
| 1777514353 | 14.44° C | 66% | 1074.5 hPa | - | - | - | - |
| 1777513149 | 15° C | 64% | 1074.1 hPa | - | - | - | - |
| 1777511943 | 15° C | 63% | 1074.2 hPa | - | - | - | - |
| 1777510739 | 15° C | 64% | 1074.3 hPa | - | - | - | - |
| 1777509534 | 15° C | 62% | 1074.4 hPa | - | - | - | - |
| 1777508329 | 15.56° C | 59% | 1074.5 hPa | - | - | - | - |
| 1777507126 | 15° C | 61% | 1074.4 hPa | - | - | - | - |
| 1777505919 | 15° C | 60% | 1074.3 hPa | - | - | - | - |
| 1777504714 | 15° C | 60% | 1074.3 hPa | - | - | - | - |
| 1777503509 | 16.11° C | 56% | 1074.3 hPa | - | - | - | - |
| 1777502304 | 15.56° C | 56% | 1074.2 hPa | - | - | - | - |
| 1777501100 | 15.56° C | 58% | 1074.2 hPa | - | - | - | - |
| 1777499895 | 15° C | 58% | 1074 hPa | - | - | - | - |
| 1777498691 | 15.56° C | 57% | 1073.9 hPa | - | - | - | - |
| 1777497486 | 15.56° C | 57% | 1073.8 hPa | - | - | - | - |
| 1777496280 | 15° C | 58% | 1073.6 hPa | - | - | - | - |
| 1777495502 | 15° C | 57% | 1073.6 hPa | - | - | - | - |
| 1777493870 | 15.56° C | 56% | 1073.5 hPa | - | - | - | - |
| 1777492665 | 16.67° C | 49% | 1072.9 hPa | - | - | - | - |
| 1777491459 | 16.67° C | 49% | 1072.7 hPa | - | - | - | - |
* Rain since midnight (hover to see other rain measurements)
** Current wind speed in m/s (hover to see current wind gust speed)